Latest Weather Observations for Onslow Airport

IDW60801

Issued at 6:33 pm WST Monday 16 January 2017 (issued every 30 minutes, with the page automatically refreshed every 10 minutes)

About weather observations | Map of weather stations | Latest weather observations for WA | Other Formats
Station Details ID: 005017 Name: ONSLOW AIRPORT Lat: -21.67 Lon: 115.11 Height: 10.5 m
Data from the previous 72 hours. | See also: Recent months at Onslow Airport
Date/Time
WST
Temp
°C
App
Temp
°C
Dew
Point
°C
Rel
Hum
%
Delta-T
°C
Wind Press
QNH
hPa
Press
MSL
hPa
Rain since
9am
mm
Dir  Spd
km/h
Gust
km/h
Spd
kts
Gust
kts
16/06:30pm 27.3 26.3 21.3 69 4.0 WNW 28 35 15 19 1005.0 1004.9 0.0
16/06:00pm 27.8 26.6 21.6 69 4.2 NW 30 35 16 19 1004.8 1004.7 0.0
16/05:30pm 28.3 26.9 21.1 65 4.8 NW 30 35 16 19 1004.7 1004.6 0.0
16/05:00pm 29.2 28.2 21.2 62 5.4 NW 28 35 15 19 1004.7 1004.6 0.0
16/04:30pm 29.0 27.6 21.2 62 5.2 NW 30 39 16 21 1004.8 1004.7 0.0
16/04:00pm 30.2 29.5 21.8 60 5.7 WNW 28 33 15 18 1004.9 1004.8 0.0
16/03:30pm 29.9 29.2 21.8 62 5.5 WNW 28 37 15 20 1005.1 1005.0 0.0
16/03:00pm 30.3 30.0 21.9 60 5.7 NW 26 33 14 18 1005.2 1005.1 0.0
16/02:30pm 30.9 31.0 21.9 58 6.1 WNW 24 32 13 17 1005.3 1005.2 0.0
16/02:00pm 30.5 31.0 21.9 60 5.8 NW 22 32 12 17 1005.5 1005.4 0.0
16/01:30pm 30.6 31.5 21.9 59 5.9 NW 20 32 11 17 1005.9 1005.8 0.0
16/01:00pm 30.5 31.4 21.6 59 6.0 NW 19 28 10 15 1005.9 1005.8 0.0
16/12:30pm 30.8 31.9 21.9 59 6.0 NW 19 28 10 15 1006.1 1006.0 0.0
16/12:00pm 31.5 32.9 21.9 56 6.5 NW 17 24 9 13 1006.2 1006.1 0.0
16/11:30am 30.7 32.3 21.5 58 6.2 NW 15 22 8 12 1006.4 1006.3 0.0
16/11:00am 30.2 31.3 21.3 59 6.0 NW 17 26 9 14 1006.8 1006.7 0.0
16/10:30am 29.5 30.3 20.6 58 5.9 NNW 17 24 9 13 1006.9 1006.8 0.0
16/10:00am 29.1 30.5 21.8 64 4.9 NW 17 24 9 13 1007.2 1007.1 0.0
16/09:30am 28.9 30.7 21.9 66 4.7 NNW 15 22 8 12 1007.1 1007.0 0.0
16/09:00am 28.8 31.1 22.1 67 4.5 NNW 13 19 7 10 1007.2 1007.1 -
16/08:30am 28.6 30.2 21.4 65 4.8 NNW 15 19 8 10 1007.2 1007.1 -
16/08:00am 28.1 31.3 21.6 68 4.4 NNE 7 13 4 7 1007.0 1006.9 -
16/07:30am 27.4 32.2 22.1 73 3.6 CALM 0 6 0 3 1007.0 1006.9 -
16/07:00am 26.8 30.2 22.0 75 3.2 SSW 7 11 4 6 1007.0 1006.9 -
16/06:30am 26.5 29.6 22.1 77 3.0 WSW 9 11 5 6 1006.7 1006.6 0.0
16/06:00am 26.2 29.3 22.1 78 2.8 WSW 9 11 5 6 1006.4 1006.3 0.0
16/05:30am 26.1 29.5 22.0 78 2.7 W 7 11 4 6 1006.2 1006.1 0.0
16/05:00am 26.2 29.3 22.1 78 2.8 WNW 9 13 5 7 1005.8 1005.7 0.0
16/04:30am 26.3 29.0 22.2 78 2.8 WNW 11 13 6 7 1005.7 1005.6 0.0
16/04:00am 26.2 29.4 22.3 79 2.6 WNW 9 13 5 7 1005.5 1005.4 0.0
16/03:30am 26.2 29.4 22.3 79 2.6 WNW 9 13 5 7 1005.6 1005.5 0.0
16/03:00am 26.3 29.5 22.4 79 2.6 NW 9 13 5 7 1005.7 1005.6 0.0
16/02:30am 26.3 29.2 22.4 79 2.6 WNW 11 13 6 7 1005.9 1005.8 0.0
16/02:00am 26.4 29.3 22.5 79 2.6 WNW 11 15 6 8 1006.0 1005.9 0.0
16/01:30am 26.4 29.3 22.5 79 2.6 NW 11 13 6 7 1006.2 1006.1 0.0
16/01:00am 26.4 28.8 22.3 78 2.8 WNW 13 17 7 9 1006.4 1006.3 0.0
16/12:30am 26.6 28.6 22.2 77 3.0 NW 15 17 8 9 1006.6 1006.5 0.0
16/12:00am 26.6 29.0 22.2 77 3.0 WNW 13 17 7 9 1007.0 1006.9 0.0
 
Date/Time
WST
Temp
°C
App
Temp
°C
Dew
Point
°C
Rel
Hum
%
Delta-T
°C
Wind Press
QNH
hPa
Press
MSL
hPa
Rain since
9am
mm
Dir  Spd
km/h
Gust
km/h
Spd
kts
Gust
kts
15/11:30pm 26.4 28.8 22.3 78 2.8 WNW 13 17 7 9 1007.1 1007.0 0.0
15/11:00pm 26.5 28.8 22.1 77 3.0 NW 13 19 7 10 1007.3 1007.2 0.0
15/10:30pm 26.6 28.6 22.2 77 3.0 WNW 15 20 8 11 1007.4 1007.3 0.0
15/10:00pm 26.6 28.5 22.0 76 3.1 WNW 15 20 8 11 1007.1 1007.0 0.0
15/09:30pm 26.8 28.4 22.2 76 3.1 NW 17 20 9 11 1007.1 1007.0 0.0
15/09:00pm 27.0 28.6 22.2 75 3.2 NW 17 20 9 11 1007.0 1006.9 0.0
15/08:30pm 27.1 28.7 22.1 74 3.4 NNW 17 20 9 11 1006.9 1006.8 0.0
15/08:00pm 27.3 29.0 22.3 74 3.4 NNW 17 22 9 12 1006.5 1006.4 0.0
15/07:30pm 27.3 28.6 22.3 74 3.4 NNW 19 22 10 12 1006.1 1006.0 0.0
15/07:00pm 27.5 28.7 22.2 73 3.6 NNW 19 26 10 14 1005.5 1005.4 0.0
15/06:30pm 27.8 28.5 22.3 72 3.7 NNW 22 28 12 15 1005.3 1005.2 0.0
15/06:00pm 28.6 28.9 22.3 68 4.3 NNW 24 32 13 17 1004.9 1004.8 0.0
15/05:30pm 29.1 29.4 22.3 66 4.6 NNW 24 32 13 17 1004.4 1004.3 0.0
15/05:00pm 29.8 30.0 22.8 66 4.8 NNW 26 32 14 17 1004.6 1004.5 0.0
15/04:30pm 29.7 29.1 22.7 66 4.8 NNW 30 35 16 19 1004.5 1004.4 0.0
15/04:00pm 30.2 30.2 23.1 65 4.9 NNW 28 35 15 19 1004.5 1004.4 0.0
15/03:30pm 30.5 31.3 23.2 65 5.0 NNW 24 32 13 17 1004.6 1004.5 0.0
15/03:00pm 30.9 31.2 23.0 62 5.4 NNW 26 35 14 19 1004.6 1004.5 0.0
15/02:30pm 30.2 30.2 23.1 65 4.9 NNW 28 35 15 19 1004.9 1004.8 0.0
15/02:00pm 31.0 31.9 23.4 64 5.3 NNW 24 33 13 18 1005.2 1005.1 0.0
15/01:30pm 31.1 31.9 23.2 63 5.4 NNW 24 35 13 19 1005.5 1005.4 0.0
15/01:00pm 30.8 32.6 23.5 65 5.1 NNW 20 30 11 16 1005.6 1005.5 0.0
15/12:30pm 30.6 32.1 23.0 64 5.2 NNW 20 33 11 18 1005.7 1005.6 0.0
15/12:00pm 30.8 32.4 23.2 64 5.2 N 20 33 11 18 1005.8 1005.7 0.0
15/11:30am 31.4 33.6 24.0 65 5.2 N 19 30 10 16 1006.0 1005.9 0.0
15/11:00am 31.3 33.7 23.7 64 5.3 N 17 28 9 15 1006.1 1006.0 0.0
15/10:30am 31.1 33.5 23.7 64 5.1 N 17 24 9 13 1006.2 1006.1 0.0
15/10:00am 29.5 31.5 23.0 68 4.5 N 17 28 9 15 1006.5 1006.4 0.0
15/09:30am 29.6 31.9 23.5 69 4.2 NNE 17 24 9 13 1006.7 1006.6 0.0
15/09:00am 29.0 31.8 23.7 73 3.7 N 15 19 8 10 1006.6 1006.5 1.4
15/08:30am 27.9 31.0 23.5 77 3.0 N 13 19 7 10 1006.5 1006.4 1.4
15/08:00am 28.3 32.1 23.4 75 3.4 N 9 13 5 7 1006.3 1006.2 1.4
15/07:30am 27.7 32.2 23.9 80 2.6 NNW 7 11 4 6 1006.3 1006.2 1.4
15/07:00am 26.5 31.0 23.6 84 2.0 NW 6 7 3 4 1006.4 1006.3 1.4
15/06:30am 26.3 31.9 23.6 85 1.8 CALM 0 2 0 1 1006.1 1006.0 1.4
15/06:00am 26.0 29.8 23.5 86 1.7 NW 9 11 5 6 1005.7 1005.6 1.4
15/05:30am 26.0 30.1 23.3 85 1.8 NW 7 11 4 6 1005.8 1005.7 1.4
15/05:00am 26.0 30.2 23.1 84 2.0 NW 6 7 3 4 1005.7 1005.6 1.4
15/04:30am 26.0 30.0 22.7 82 2.2 NW 6 7 3 4 1005.5 1005.4 1.4
15/04:00am 26.1 30.2 22.2 79 2.6 NW 4 7 2 4 1005.4 1005.3 1.4
15/03:30am 26.1 30.8 22.0 78 2.7 CALM 0 0 0 0 1005.4 1005.3 1.4
15/03:00am 26.0 29.6 22.1 79 2.6 NW 6 6 3 3 1005.4 1005.3 1.4
15/02:30am 25.8 28.1 22.1 80 2.5 WNW 13 15 7 8 1005.1 1005.0 1.4
15/02:00am 25.8 28.9 22.1 80 2.5 WNW 9 13 5 7 1005.4 1005.3 1.4
15/01:30am 25.6 28.0 21.5 78 2.7 WNW 11 13 6 7 1005.5 1005.4 1.4
15/01:00am 25.5 26.6 22.0 81 2.3 NNW 19 24 10 13 1005.4 1005.3 1.4
15/12:30am 25.2 26.2 22.1 83 2.1 NNW 20 24 11 13 1005.6 1005.5 1.4
15/12:00am 25.4 28.8 22.7 85 1.8 NNW 9 11 5 6 1006.5 1006.4 1.4
 
Date/Time
WST
Temp
°C
App
Temp
°C
Dew
Point
°C
Rel
Hum
%
Delta-T
°C
Wind Press
QNH
hPa
Press
MSL
hPa
Rain since
9am
mm
Dir  Spd
km/h
Gust
km/h
Spd
kts
Gust
kts
14/11:30pm 25.0 27.5 21.7 82 2.2 NW 11 13 6 7 1006.9 1006.8 1.2
14/11:00pm 26.4 29.9 21.8 76 3.1 SW 6 7 3 4 1007.8 1007.7 0.2
14/10:30pm 26.7 29.6 22.5 78 2.8 SW 11 15 6 8 1008.3 1008.2 0.0
14/10:00pm 26.7 29.1 22.3 77 3.0 NW 13 15 7 8 1007.5 1007.4 0.0
14/09:30pm 26.8 29.1 22.0 75 3.2 NNW 13 17 7 9 1007.1 1007.0 0.0
14/09:00pm 27.0 28.7 21.7 73 3.5 NW 15 19 8 10 1006.9 1006.8 0.0
14/08:30pm 27.1 28.9 21.2 70 3.9 N 13 15 7 8 1006.8 1006.7 0.0
14/08:00pm 27.4 28.7 21.7 71 3.8 WNW 17 20 9 11 1005.7 1005.6 0.0
14/07:30pm 27.7 29.7 21.5 69 4.1 WNW 13 17 7 9 1005.2 1005.1 0.0
14/07:00pm 27.8 28.0 20.6 65 4.8 WNW 20 28 11 15 1004.3 1004.2 0.0
14/06:30pm 27.6 26.0 21.6 70 4.0 W 32 37 17 20 1003.3 1003.2 0.0
14/06:00pm 28.1 27.2 21.4 67 4.5 WNW 28 35 15 19 1003.1 1003.0 0.0
14/05:30pm 28.9 27.1 21.1 62 5.2 WNW 32 39 17 21 1003.0 1002.9 0.0
14/05:00pm 30.6 28.4 20.8 56 6.6 WNW 33 41 18 22 1002.3 1002.2 0.0
14/04:30pm 30.0 26.9 19.7 54 6.7 WNW 35 44 19 24 1001.9 1001.8 0.0
14/04:00pm 30.9 28.3 19.9 52 7.3 WNW 33 43 18 23 1002.4 1002.3 0.0
14/03:30pm 32.2 30.5 20.5 50 7.8 NW 30 35 16 19 1002.8 1002.7 0.0
14/03:00pm 32.5 30.8 19.7 46 8.5 NW 28 35 15 19 1003.3 1003.2 0.0
14/02:30pm 33.2 31.6 20.0 45 8.8 NW 28 33 15 18 1003.8 1003.7 0.0
14/02:00pm 33.0 32.5 21.5 50 7.8 NW 26 30 14 16 1004.2 1004.1 0.0
14/01:30pm 33.2 32.8 21.0 48 8.2 NNW 24 30 13 16 1004.6 1004.5 0.0
14/01:00pm 33.6 34.1 21.1 48 8.4 NW 20 26 11 14 1005.1 1005.0 0.0
14/12:30pm 33.0 33.7 21.2 50 8.0 NNW 19 24 10 13 1005.6 1005.5 0.0
14/12:00pm 33.4 34.1 21.2 48 8.3 N 19 24 10 13 1005.7 1005.6 0.0
14/11:30am 33.2 33.8 21.0 48 8.2 N 19 24 10 13 1006.0 1005.9 0.0
14/11:00am 33.3 34.0 21.5 50 8.0 NNE 20 28 11 15 1006.2 1006.1 0.0
14/10:30am 32.2 32.5 20.5 50 7.8 NNE 19 26 10 14 1006.2 1006.1 0.0
14/10:00am 33.0 34.2 19.8 45 8.8 NNE 13 20 7 11 1006.2 1006.1 0.0
14/09:30am 30.7 31.8 18.8 49 7.7 NNE 11 17 6 9 1006.2 1006.1 0.0
14/09:00am 29.7 31.1 20.3 57 6.2 NNE 13 15 7 8 1006.4 1006.3 0.0
14/08:30am 29.4 31.4 20.8 60 5.7 NNE 11 15 6 8 1006.4 1006.3 0.0
14/08:00am 29.0 31.1 20.2 59 5.8 NE 9 13 5 7 1006.0 1005.9 0.0
14/07:30am 28.2 30.3 19.4 59 5.7 NE 7 9 4 5 1006.0 1005.9 0.0
14/07:00am 27.1 30.3 19.7 64 4.8 NE 2 9 1 5 1006.0 1005.9 0.0
14/06:30am 25.8 29.1 19.9 70 3.8 NNE 2 6 1 3 1005.9 1005.8 0.0
14/06:00am 25.2 27.7 19.8 72 3.5 NNE 6 7 3 4 1005.7 1005.6 0.0
14/05:30am 25.1 27.3 19.2 70 3.8 ESE 6 7 3 4 1005.4 1005.3 0.0
14/05:00am 24.9 27.1 19.1 70 3.7 SSW 6 7 3 4 1005.1 1005.0 0.0
14/04:30am 25.4 26.0 19.5 70 3.8 WNW 15 19 8 10 1004.0 1003.9 0.0
14/04:00am 24.8 25.6 19.0 70 3.7 WNW 13 15 7 8 1004.1 1004.0 0.0
14/03:30am 25.3 27.3 19.2 69 3.9 NW 7 9 4 5 1004.6 1004.5 0.0
14/03:00am 25.5 28.8 19.2 68 4.1 CALM 0 0 0 0 1004.6 1004.5 0.0
14/02:30am 25.6 27.8 19.3 68 4.0 N 6 9 3 5 1004.3 1004.2 0.0
14/02:00am 25.8 25.7 18.7 65 4.5 WSW 17 20 9 11 1004.2 1004.1 0.0
14/01:30am 26.3 25.7 18.9 63 4.7 WSW 20 26 11 14 1004.3 1004.2 0.0
14/01:00am 26.6 26.5 18.7 62 5.1 WSW 17 22 9 12 1004.9 1004.8 0.0
14/12:30am 26.9 25.2 18.2 59 5.5 WSW 24 32 13 17 1004.5 1004.4 0.0
14/12:00am 27.1 26.4 19.4 62 5.0 WSW 22 28 12 15 1004.6 1004.5 0.0
 
Date/Time
WST
Temp
°C
App
Temp
°C
Dew
Point
°C
Rel
Hum
%
Delta-T
°C
Wind Press
QNH
hPa
Press
MSL
hPa
Rain since
9am
mm
Dir  Spd
km/h
Gust
km/h
Spd
kts
Gust
kts
13/11:30pm 27.1 25.9 20.0 65 4.6 WSW 26 33 14 18 1004.4 1004.3 0.0
13/11:00pm 27.0 27.2 22.0 74 3.4 W 24 30 13 16 1004.6 1004.5 0.0
13/10:30pm 27.5 28.4 22.0 72 3.7 WNW 20 26 11 14 1004.8 1004.7 0.0
13/10:00pm 27.2 28.6 22.8 77 3.0 NW 20 26 11 14 1004.8 1004.7 0.0
13/09:30pm 27.5 28.5 22.2 73 3.6 NW 20 26 11 14 1005.0 1004.9 0.0
13/09:00pm 28.0 29.0 21.8 69 4.2 NW 19 22 10 12 1004.7 1004.6 0.0
13/08:30pm 28.5 30.2 21.0 64 5.0 NNW 13 17 7 9 1004.9 1004.8 0.0
13/08:00pm 28.9 30.2 20.1 59 5.8 NW 13 17 7 9 1004.7 1004.6 0.0
13/07:30pm 29.2 29.4 20.1 58 6.0 WNW 19 22 10 12 1004.1 1004.0 0.0
13/07:00pm 29.5 29.2 19.5 55 6.5 WNW 20 26 11 14 1003.5 1003.4 0.0

Other Formats:

Comma delimited format used in spreadsheet applications
http://www.bom.gov.au/fwo/IDW60801/IDW60801.95305.axf

JavaScript Object Notation format (JSON) in row-major order
http://www.bom.gov.au/fwo/IDW60801/IDW60801.95305.json